This is the latest recevied weather packets stored in our database for station/object SV4JYD-14. If no packets are shown the sender has not sent any weather packets the latest 10 day(s).
| Time | Temp. | Humidity | Pressure | Rain* | Wind** | Luminosity | Snow |
|---|---|---|---|---|---|---|---|
| 1778157021 | 26.67° C | 28% | 1019 hPa | 0 mm | - | - | - |
| 1778156119 | 26.67° C | 28% | 1019 hPa | 0 mm | - | - | - |
| 1778155218 | 25.56° C | 27% | 1019 hPa | 0 mm | - | - | - |
| 1778154318 | 25.56° C | 27% | 1019 hPa | 0 mm | - | - | - |
| 1778153418 | 24.44° C | 31% | 1019 hPa | 0 mm | - | - | - |
| 1778152518 | 24.44° C | 31% | 1019 hPa | 0 mm | - | - | - |
| 1778151617 | 24.44° C | 33% | 1019 hPa | 0 mm | - | - | - |
| 1778150717 | 22.22° C | 46% | 1019 hPa | 0 mm | - | - | - |
| 1778149817 | 21.67° C | 47% | 1019 hPa | 0 mm | - | - | - |
| 1778148917 | 21.67° C | 51% | 1019 hPa | 0 mm | - | - | - |
| 1778148016 | 21.11° C | 49% | 1019 hPa | 0 mm | - | - | - |
| 1778147116 | 22.22° C | 45% | 1019 hPa | 0 mm | - | - | - |
| 1778146216 | 22.22° C | 47% | 1019 hPa | 0 mm | - | - | - |
| 1778145316 | 21.67° C | 48% | 1020 hPa | 0 mm | - | - | - |
| 1778144415 | 21.11° C | 48% | 1019 hPa | 0 mm | - | - | - |
| 1778143515 | 21.67° C | 48% | 1019 hPa | 0 mm | - | - | - |
| 1778142615 | 21.11° C | 47% | 1019 hPa | 0 mm | - | - | - |
| 1778141715 | 20.56° C | 51% | 1020 hPa | 0 mm | - | - | - |
| 1778140814 | 20° C | 53% | 1019 hPa | 0 mm | - | - | - |
| 1778139914 | 19.44° C | 55% | 1019 hPa | 0 mm | - | - | - |
| 1778139014 | 20° C | 51% | 1019 hPa | 0 mm | - | - | - |
| 1778138114 | 20.56° C | 53% | 1019 hPa | 0 mm | - | - | - |
| 1778137213 | 20° C | 53% | 1019 hPa | 0 mm | - | - | - |
| 1778136313 | 19.44° C | 52% | 1019 hPa | 0 mm | - | - | - |
| 1778135413 | 19.44° C | 60% | 1019 hPa | 0 mm | - | - | - |
* Rain latest hour (hover to see other rain measurements)
** Current wind speed in m/s (hover to see current wind gust speed)